sensor_id;sensor_type;location;lat;lon;timestamp;P1;durP1;ratioP1;P2;durP2;ratioP2
82028;SDS011;71590;52.216;13.448;2023-07-29T00:03:16;8.60;;;7.80;;
82028;SDS011;71590;52.216;13.448;2023-07-29T00:08:17;10.07;;;9.10;;
82028;SDS011;71590;52.216;13.448;2023-07-29T00:13:18;10.80;;;9.80;;
82028;SDS011;71590;52.216;13.448;2023-07-29T00:18:19;10.80;;;9.70;;
82028;SDS011;71590;52.216;13.448;2023-07-29T00:23:20;11.53;;;9.43;;
82028;SDS011;71590;52.216;13.448;2023-07-29T00:28:21;9.23;;;8.40;;
82028;SDS011;71590;52.216;13.448;2023-07-29T00:33:22;9.33;;;8.43;;
82028;SDS011;71590;52.216;13.448;2023-07-29T00:38:23;8.70;;;8.00;;
82028;SDS011;71590;52.216;13.448;2023-07-29T00:43:24;12.87;;;8.70;;
82028;SDS011;71590;52.216;13.448;2023-07-29T00:48:25;8.93;;;8.13;;
82028;SDS011;71590;52.216;13.448;2023-07-29T00:53:27;9.63;;;8.63;;
82028;SDS011;71590;52.216;13.448;2023-07-29T00:58:28;8.33;;;7.50;;
82028;SDS011;71590;52.216;13.448;2023-07-29T01:03:29;10.00;;;9.20;;
82028;SDS011;71590;52.216;13.448;2023-07-29T01:08:35;9.83;;;8.83;;
82028;SDS011;71590;52.216;13.448;2023-07-29T01:13:41;10.23;;;9.17;;
82028;SDS011;71590;52.216;13.448;2023-07-29T01:18:45;10.47;;;9.50;;
82028;SDS011;71590;52.216;13.448;2023-07-29T01:23:51;13.37;;;9.83;;
82028;SDS011;71590;52.216;13.448;2023-07-29T01:28:53;11.20;;;10.30;;
82028;SDS011;71590;52.216;13.448;2023-07-29T01:34:06;11.37;;;9.47;;
82028;SDS011;71590;52.216;13.448;2023-07-29T01:39:11;9.53;;;8.57;;
82028;SDS011;71590;52.216;13.448;2023-07-29T01:44:13;14.50;;;9.20;;
82028;SDS011;71590;52.216;13.448;2023-07-29T01:49:14;8.97;;;8.07;;
82028;SDS011;71590;52.216;13.448;2023-07-29T01:54:16;11.33;;;10.23;;
82028;SDS011;71590;52.216;13.448;2023-07-29T01:59:17;11.57;;;10.47;;
82028;SDS011;71590;52.216;13.448;2023-07-29T02:04:18;11.30;;;10.30;;
82028;SDS011;71590;52.216;13.448;2023-07-29T02:09:19;11.00;;;9.90;;
82028;SDS011;71590;52.216;13.448;2023-07-29T02:14:20;12.20;;;10.27;;
82028;SDS011;71590;52.216;13.448;2023-07-29T02:19:21;11.43;;;10.47;;
82028;SDS011;71590;52.216;13.448;2023-07-29T02:24:22;11.07;;;10.03;;
82028;SDS011;71590;52.216;13.448;2023-07-29T02:29:23;12.87;;;11.60;;
82028;SDS011;71590;52.216;13.448;2023-07-29T02:34:25;11.90;;;10.80;;
82028;SDS011;71590;52.216;13.448;2023-07-29T02:39:26;10.83;;;9.63;;
82028;SDS011;71590;52.216;13.448;2023-07-29T02:44:27;7.43;;;6.73;;
82028;SDS011;71590;52.216;13.448;2023-07-29T02:49:28;7.70;;;7.10;;
82028;SDS011;71590;52.216;13.448;2023-07-29T02:54:29;8.20;;;7.50;;
82028;SDS011;71590;52.216;13.448;2023-07-29T02:59:30;8.17;;;7.47;;
82028;SDS011;71590;52.216;13.448;2023-07-29T03:04:31;8.93;;;8.03;;
82028;SDS011;71590;52.216;13.448;2023-07-29T03:09:32;8.60;;;7.90;;
82028;SDS011;71590;52.216;13.448;2023-07-29T03:14:33;8.57;;;7.93;;
82028;SDS011;71590;52.216;13.448;2023-07-29T03:19:34;8.50;;;7.70;;
82028;SDS011;71590;52.216;13.448;2023-07-29T03:24:35;9.50;;;8.57;;
82028;SDS011;71590;52.216;13.448;2023-07-29T03:29:36;10.30;;;9.33;;
82028;SDS011;71590;52.216;13.448;2023-07-29T03:34:38;11.83;;;9.40;;
82028;SDS011;71590;52.216;13.448;2023-07-29T03:39:40;9.53;;;8.53;;
82028;SDS011;71590;52.216;13.448;2023-07-29T03:44:41;8.30;;;7.70;;
82028;SDS011;71590;52.216;13.448;2023-07-29T03:49:42;9.10;;;8.37;;
82028;SDS011;71590;52.216;13.448;2023-07-29T03:54:43;8.23;;;7.63;;
82028;SDS011;71590;52.216;13.448;2023-07-29T03:59:44;8.27;;;7.47;;
82028;SDS011;71590;52.216;13.448;2023-07-29T04:04:45;8.43;;;7.63;;
82028;SDS011;71590;52.216;13.448;2023-07-29T04:09:48;7.90;;;7.27;;
82028;SDS011;71590;52.216;13.448;2023-07-29T04:14:49;9.83;;;7.87;;
82028;SDS011;71590;52.216;13.448;2023-07-29T04:19:50;8.63;;;7.83;;
82028;SDS011;71590;52.216;13.448;2023-07-29T04:24:52;6.97;;;6.37;;
82028;SDS011;71590;52.216;13.448;2023-07-29T04:29:53;6.83;;;6.33;;
82028;SDS011;71590;52.216;13.448;2023-07-29T04:34:54;6.00;;;5.60;;
82028;SDS011;71590;52.216;13.448;2023-07-29T04:39:55;6.67;;;6.07;;
82028;SDS011;71590;52.216;13.448;2023-07-29T04:44:56;6.93;;;6.07;;
82028;SDS011;71590;52.216;13.448;2023-07-29T04:49:57;6.43;;;5.83;;
82028;SDS011;71590;52.216;13.448;2023-07-29T04:54:59;6.87;;;6.23;;
82028;SDS011;71590;52.216;13.448;2023-07-29T05:00:00;5.90;;;5.50;;
82028;SDS011;71590;52.216;13.448;2023-07-29T05:05:01;6.07;;;5.57;;
82028;SDS011;71590;52.216;13.448;2023-07-29T05:10:03;4.93;;;4.63;;
82028;SDS011;71590;52.216;13.448;2023-07-29T05:15:04;5.50;;;5.00;;
82028;SDS011;71590;52.216;13.448;2023-07-29T05:20:06;4.40;;;4.00;;
82028;SDS011;71590;52.216;13.448;2023-07-29T05:25:08;4.10;;;3.80;;
82028;SDS011;71590;52.216;13.448;2023-07-29T05:30:09;4.00;;;3.70;;
82028;SDS011;71590;52.216;13.448;2023-07-29T05:35:10;4.93;;;3.90;;
82028;SDS011;71590;52.216;13.448;2023-07-29T05:40:12;4.17;;;3.73;;
82028;SDS011;71590;52.216;13.448;2023-07-29T05:45:14;3.67;;;3.37;;
82028;SDS011;71590;52.216;13.448;2023-07-29T05:50:15;4.63;;;3.30;;
82028;SDS011;71590;52.216;13.448;2023-07-29T05:55:16;3.97;;;3.53;;
82028;SDS011;71590;52.216;13.448;2023-07-29T06:00:17;3.53;;;3.03;;
82028;SDS011;71590;52.216;13.448;2023-07-29T06:05:18;3.57;;;3.23;;
82028;SDS011;71590;52.216;13.448;2023-07-29T06:10:19;3.90;;;3.60;;
82028;SDS011;71590;52.216;13.448;2023-07-29T06:15:20;4.27;;;3.10;;
82028;SDS011;71590;52.216;13.448;2023-07-29T06:20:23;3.00;;;2.80;;
82028;SDS011;71590;52.216;13.448;2023-07-29T06:25:24;3.03;;;2.83;;
82028;SDS011;71590;52.216;13.448;2023-07-29T06:30:25;2.83;;;2.43;;
82028;SDS011;71590;52.216;13.448;2023-07-29T06:35:26;3.07;;;2.87;;
82028;SDS011;71590;52.216;13.448;2023-07-29T06:40:27;3.77;;;2.67;;
82028;SDS011;71590;52.216;13.448;2023-07-29T06:45:28;3.20;;;2.53;;
82028;SDS011;71590;52.216;13.448;2023-07-29T06:50:29;2.40;;;2.30;;
82028;SDS011;71590;52.216;13.448;2023-07-29T06:55:30;2.80;;;2.60;;
82028;SDS011;71590;52.216;13.448;2023-07-29T07:00:31;2.40;;;2.20;;
82028;SDS011;71590;52.216;13.448;2023-07-29T07:05:32;2.37;;;2.20;;
82028;SDS011;71590;52.216;13.448;2023-07-29T07:10:34;2.70;;;2.50;;
82028;SDS011;71590;52.216;13.448;2023-07-29T07:15:35;2.57;;;2.37;;
82028;SDS011;71590;52.216;13.448;2023-07-29T07:20:36;2.60;;;2.40;;
82028;SDS011;71590;52.216;13.448;2023-07-29T07:25:37;2.20;;;2.00;;
82028;SDS011;71590;52.216;13.448;2023-07-29T07:30:41;2.33;;;2.20;;
82028;SDS011;71590;52.216;13.448;2023-07-29T07:35:42;2.20;;;2.10;;
82028;SDS011;71590;52.216;13.448;2023-07-29T07:40:51;2.30;;;2.10;;
82028;SDS011;71590;52.216;13.448;2023-07-29T07:45:57;2.60;;;2.13;;
82028;SDS011;71590;52.216;13.448;2023-07-29T07:50:58;2.00;;;1.90;;
82028;SDS011;71590;52.216;13.448;2023-07-29T07:55:59;2.27;;;1.90;;
82028;SDS011;71590;52.216;13.448;2023-07-29T08:01:04;3.45;;;2.00;;
82028;SDS011;71590;52.216;13.448;2023-07-29T08:06:05;2.20;;;2.10;;
82028;SDS011;71590;52.216;13.448;2023-07-29T08:11:06;3.38;;;1.95;;
82028;SDS011;71590;52.216;13.448;2023-07-29T08:16:07;1.98;;;1.88;;
82028;SDS011;71590;52.216;13.448;2023-07-29T08:21:08;2.08;;;1.98;;
82028;SDS011;71590;52.216;13.448;2023-07-29T08:26:09;2.15;;;2.05;;
82028;SDS011;71590;52.216;13.448;2023-07-29T08:31:10;2.03;;;1.92;;
82028;SDS011;71590;52.216;13.448;2023-07-29T08:36:11;1.60;;;1.60;;
82028;SDS011;71590;52.216;13.448;2023-07-29T08:46:13;2.25;;;2.05;;
82028;SDS011;71590;52.216;13.448;2023-07-29T08:51:16;2.15;;;2.00;;
82028;SDS011;71590;52.216;13.448;2023-07-29T08:56:18;2.30;;;2.05;;
82028;SDS011;71590;52.216;13.448;2023-07-29T09:01:19;1.88;;;1.77;;
82028;SDS011;71590;52.216;13.448;2023-07-29T09:06:20;2.10;;;1.90;;
82028;SDS011;71590;52.216;13.448;2023-07-29T09:11:22;1.65;;;1.55;;
82028;SDS011;71590;52.216;13.448;2023-07-29T09:16:23;1.65;;;1.40;;
82028;SDS011;71590;52.216;13.448;2023-07-29T09:21:24;2.00;;;1.90;;
82028;SDS011;71590;52.216;13.448;2023-07-29T09:26:28;2.10;;;1.90;;
82028;SDS011;71590;52.216;13.448;2023-07-29T09:31:29;2.00;;;1.90;;
82028;SDS011;71590;52.216;13.448;2023-07-29T09:36:31;2.45;;;2.22;;
82028;SDS011;71590;52.216;13.448;2023-07-29T09:41:32;1.77;;;1.67;;
82028;SDS011;71590;52.216;13.448;2023-07-29T09:46:34;1.65;;;1.63;;
82028;SDS011;71590;52.216;13.448;2023-07-29T09:51:39;2.67;;;2.28;;
82028;SDS011;71590;52.216;13.448;2023-07-29T09:56:41;2.13;;;1.70;;
82028;SDS011;71590;52.216;13.448;2023-07-29T10:01:44;1.95;;;1.85;;
82028;SDS011;71590;52.216;13.448;2023-07-29T10:06:45;1.75;;;1.65;;
82028;SDS011;71590;52.216;13.448;2023-07-29T10:11:46;2.13;;;1.92;;
82028;SDS011;71590;52.216;13.448;2023-07-29T10:16:49;2.22;;;2.00;;
82028;SDS011;71590;52.216;13.448;2023-07-29T10:21:50;2.58;;;2.10;;
82028;SDS011;71590;52.216;13.448;2023-07-29T10:26:51;1.95;;;1.85;;
82028;SDS011;71590;52.216;13.448;2023-07-29T10:31:52;1.80;;;1.70;;
82028;SDS011;71590;52.216;13.448;2023-07-29T10:36:53;2.05;;;1.88;;
82028;SDS011;71590;52.216;13.448;2023-07-29T10:42:01;2.17;;;1.90;;
82028;SDS011;71590;52.216;13.448;2023-07-29T10:47:10;2.47;;;2.08;;
82028;SDS011;71590;52.216;13.448;2023-07-29T10:52:13;2.17;;;1.80;;
82028;SDS011;71590;52.216;13.448;2023-07-29T10:57:15;2.10;;;2.00;;
82028;SDS011;71590;52.216;13.448;2023-07-29T11:02:17;2.03;;;1.92;;
82028;SDS011;71590;52.216;13.448;2023-07-29T11:07:20;2.25;;;1.83;;
82028;SDS011;71590;52.216;13.448;2023-07-29T11:17:54;5.40;;;2.80;;
82028;SDS011;71590;52.216;13.448;2023-07-29T11:22:55;3.17;;;2.58;;
82028;SDS011;71590;52.216;13.448;2023-07-29T11:27:57;3.42;;;2.25;;
82028;SDS011;71590;52.216;13.448;2023-07-29T11:32:59;2.70;;;2.45;;
82028;SDS011;71590;52.216;13.448;2023-07-29T11:38:00;2.95;;;2.67;;
82028;SDS011;71590;52.216;13.448;2023-07-29T11:43:01;2.72;;;2.53;;
82028;SDS011;71590;52.216;13.448;2023-07-29T11:48:02;3.00;;;2.63;;
82028;SDS011;71590;52.216;13.448;2023-07-29T11:53:03;3.90;;;2.30;;
82028;SDS011;71590;52.216;13.448;2023-07-29T11:58:04;2.75;;;2.55;;
82028;SDS011;71590;52.216;13.448;2023-07-29T12:03:05;2.10;;;2.00;;
82028;SDS011;71590;52.216;13.448;2023-07-29T12:08:07;2.15;;;2.00;;
82028;SDS011;71590;52.216;13.448;2023-07-29T12:13:09;4.88;;;1.80;;
82028;SDS011;71590;52.216;13.448;2023-07-29T12:18:10;2.47;;;1.48;;
82028;SDS011;71590;52.216;13.448;2023-07-29T12:23:15;4.00;;;1.75;;
82028;SDS011;71590;52.216;13.448;2023-07-29T12:28:16;1.93;;;1.80;;
82028;SDS011;71590;52.216;13.448;2023-07-29T12:33:33;0.80;;;0.80;;
82028;SDS011;71590;52.216;13.448;2023-07-29T12:38:35;1.40;;;1.20;;
82028;SDS011;71590;52.216;13.448;2023-07-29T12:43:36;1.57;;;1.47;;
82028;SDS011;71590;52.216;13.448;2023-07-29T12:48:37;1.50;;;1.40;;
82028;SDS011;71590;52.216;13.448;2023-07-29T12:53:38;1.60;;;1.30;;
82028;SDS011;71590;52.216;13.448;2023-07-29T12:58:39;1.37;;;1.27;;
82028;SDS011;71590;52.216;13.448;2023-07-29T13:03:40;1.30;;;1.20;;
82028;SDS011;71590;52.216;13.448;2023-07-29T13:08:42;1.57;;;1.10;;
82028;SDS011;71590;52.216;13.448;2023-07-29T13:13:45;1.37;;;1.27;;
82028;SDS011;71590;52.216;13.448;2023-07-29T13:18:46;1.53;;;1.37;;
82028;SDS011;71590;52.216;13.448;2023-07-29T13:23:47;1.40;;;1.30;;
82028;SDS011;71590;52.216;13.448;2023-07-29T13:28:48;2.53;;;1.20;;
82028;SDS011;71590;52.216;13.448;2023-07-29T13:33:49;1.50;;;1.40;;
82028;SDS011;71590;52.216;13.448;2023-07-29T13:38:50;1.20;;;1.10;;
82028;SDS011;71590;52.216;13.448;2023-07-29T13:43:51;2.40;;;1.08;;
82028;SDS011;71590;52.216;13.448;2023-07-29T13:48:52;1.20;;;1.10;;
82028;SDS011;71590;52.216;13.448;2023-07-29T13:53:53;1.60;;;1.50;;
82028;SDS011;71590;52.216;13.448;2023-07-29T13:58:54;1.10;;;1.10;;
82028;SDS011;71590;52.216;13.448;2023-07-29T14:03:54;1.55;;;1.40;;
82028;SDS011;71590;52.216;13.448;2023-07-29T14:08:55;1.00;;;1.00;;
82028;SDS011;71590;52.216;13.448;2023-07-29T14:13:56;9.55;;;1.60;;
82028;SDS011;71590;52.216;13.448;2023-07-29T14:18:58;1.30;;;1.20;;
82028;SDS011;71590;52.216;13.448;2023-07-29T14:23:58;2.00;;;1.17;;
82028;SDS011;71590;52.216;13.448;2023-07-29T14:28:59;1.73;;;1.60;;
82028;SDS011;71590;52.216;13.448;2023-07-29T14:34:00;1.98;;;1.60;;
82028;SDS011;71590;52.216;13.448;2023-07-29T14:39:04;2.83;;;1.75;;
82028;SDS011;71590;52.216;13.448;2023-07-29T14:44:05;2.97;;;1.60;;
82028;SDS011;71590;52.216;13.448;2023-07-29T14:49:06;2.35;;;2.05;;
82028;SDS011;71590;52.216;13.448;2023-07-29T14:54:07;1.90;;;1.80;;
82028;SDS011;71590;52.216;13.448;2023-07-29T14:59:14;3.00;;;2.50;;
82028;SDS011;71590;52.216;13.448;2023-07-29T15:04:15;2.00;;;1.88;;
82028;SDS011;71590;52.216;13.448;2023-07-29T15:09:17;3.58;;;2.40;;
82028;SDS011;71590;52.216;13.448;2023-07-29T15:14:18;2.40;;;2.20;;
82028;SDS011;71590;52.216;13.448;2023-07-29T15:19:19;2.30;;;2.20;;
82028;SDS011;71590;52.216;13.448;2023-07-29T15:24:20;4.88;;;2.28;;
82028;SDS011;71590;52.216;13.448;2023-07-29T15:29:21;2.35;;;2.15;;
82028;SDS011;71590;52.216;13.448;2023-07-29T15:34:22;2.85;;;2.40;;
82028;SDS011;71590;52.216;13.448;2023-07-29T15:39:25;2.70;;;1.90;;
82028;SDS011;71590;52.216;13.448;2023-07-29T15:44:26;3.03;;;2.33;;
82028;SDS011;71590;52.216;13.448;2023-07-29T15:49:27;3.08;;;2.78;;
82028;SDS011;71590;52.216;13.448;2023-07-29T15:54:28;1.98;;;1.88;;
82028;SDS011;71590;52.216;13.448;2023-07-29T15:59:29;5.00;;;3.38;;
82028;SDS011;71590;52.216;13.448;2023-07-29T16:04:30;3.55;;;1.80;;
82028;SDS011;71590;52.216;13.448;2023-07-29T16:09:31;3.30;;;2.60;;
82028;SDS011;71590;52.216;13.448;2023-07-29T16:14:35;7.73;;;4.03;;
82028;SDS011;71590;52.216;13.448;2023-07-29T16:19:57;4.23;;;3.60;;
82028;SDS011;71590;52.216;13.448;2023-07-29T16:24:58;5.60;;;2.90;;
82028;SDS011;71590;52.216;13.448;2023-07-29T16:30:00;5.07;;;2.67;;
82028;SDS011;71590;52.216;13.448;2023-07-29T16:35:02;4.67;;;2.53;;
82028;SDS011;71590;52.216;13.448;2023-07-29T16:40:03;2.97;;;2.23;;
82028;SDS011;71590;52.216;13.448;2023-07-29T16:45:05;4.87;;;2.70;;
82028;SDS011;71590;52.216;13.448;2023-07-29T16:50:06;7.00;;;2.77;;
82028;SDS011;71590;52.216;13.448;2023-07-29T16:55:13;4.00;;;3.20;;
82028;SDS011;71590;52.216;13.448;2023-07-29T17:00:14;4.53;;;3.00;;
82028;SDS011;71590;52.216;13.448;2023-07-29T17:05:15;5.70;;;3.10;;
82028;SDS011;71590;52.216;13.448;2023-07-29T17:10:16;5.50;;;3.27;;
82028;SDS011;71590;52.216;13.448;2023-07-29T17:15:17;5.67;;;3.20;;
82028;SDS011;71590;52.216;13.448;2023-07-29T17:20:18;3.73;;;2.80;;
82028;SDS011;71590;52.216;13.448;2023-07-29T17:25:20;4.87;;;3.60;;
82028;SDS011;71590;52.216;13.448;2023-07-29T17:30:23;4.27;;;3.40;;
82028;SDS011;71590;52.216;13.448;2023-07-29T17:35:25;3.63;;;2.43;;
82028;SDS011;71590;52.216;13.448;2023-07-29T17:40:26;3.50;;;2.85;;
82028;SDS011;71590;52.216;13.448;2023-07-29T17:45:27;2.40;;;2.20;;
82028;SDS011;71590;52.216;13.448;2023-07-29T17:50:28;3.40;;;2.30;;
82028;SDS011;71590;52.216;13.448;2023-07-29T17:55:36;2.50;;;2.22;;
82028;SDS011;71590;52.216;13.448;2023-07-29T18:00:37;4.68;;;2.40;;
82028;SDS011;71590;52.216;13.448;2023-07-29T18:05:38;3.78;;;2.40;;
82028;SDS011;71590;52.216;13.448;2023-07-29T18:10:40;2.72;;;2.42;;
82028;SDS011;71590;52.216;13.448;2023-07-29T18:15:41;5.20;;;2.38;;
82028;SDS011;71590;52.216;13.448;2023-07-29T18:20:42;5.00;;;2.85;;
82028;SDS011;71590;52.216;13.448;2023-07-29T18:25:44;3.30;;;2.75;;
82028;SDS011;71590;52.216;13.448;2023-07-29T18:30:47;3.65;;;3.33;;
82028;SDS011;71590;52.216;13.448;2023-07-29T18:35:51;4.20;;;3.70;;
82028;SDS011;71590;52.216;13.448;2023-07-29T18:40:52;4.22;;;3.50;;
82028;SDS011;71590;52.216;13.448;2023-07-29T18:45:53;5.37;;;3.50;;
82028;SDS011;71590;52.216;13.448;2023-07-29T18:50:55;3.40;;;3.10;;
82028;SDS011;71590;52.216;13.448;2023-07-29T18:55:56;5.50;;;3.50;;
82028;SDS011;71590;52.216;13.448;2023-07-29T19:00:57;7.73;;;3.90;;
82028;SDS011;71590;52.216;13.448;2023-07-29T19:05:59;5.77;;;4.00;;
82028;SDS011;71590;52.216;13.448;2023-07-29T19:11:00;4.97;;;4.47;;
82028;SDS011;71590;52.216;13.448;2023-07-29T19:16:01;10.50;;;4.40;;
82028;SDS011;71590;52.216;13.448;2023-07-29T19:21:06;5.07;;;4.37;;
82028;SDS011;71590;52.216;13.448;2023-07-29T19:26:07;5.77;;;5.20;;
82028;SDS011;71590;52.216;13.448;2023-07-29T19:31:11;5.87;;;4.73;;
82028;SDS011;71590;52.216;13.448;2023-07-29T19:36:14;6.40;;;5.80;;
82028;SDS011;71590;52.216;13.448;2023-07-29T19:41:15;4.80;;;4.43;;
82028;SDS011;71590;52.216;13.448;2023-07-29T19:46:16;5.60;;;4.93;;
82028;SDS011;71590;52.216;13.448;2023-07-29T19:51:23;7.33;;;5.87;;
82028;SDS011;71590;52.216;13.448;2023-07-29T19:56:24;6.07;;;5.30;;
82028;SDS011;71590;52.216;13.448;2023-07-29T20:01:25;6.30;;;5.57;;
82028;SDS011;71590;52.216;13.448;2023-07-29T20:06:26;6.70;;;6.07;;
82028;SDS011;71590;52.216;13.448;2023-07-29T20:11:32;5.90;;;5.40;;
82028;SDS011;71590;52.216;13.448;2023-07-29T20:16:35;6.27;;;5.77;;
82028;SDS011;71590;52.216;13.448;2023-07-29T20:21:36;9.47;;;6.00;;
82028;SDS011;71590;52.216;13.448;2023-07-29T20:26:37;7.47;;;6.77;;
82028;SDS011;71590;52.216;13.448;2023-07-29T20:31:38;7.60;;;6.60;;
82028;SDS011;71590;52.216;13.448;2023-07-29T20:36:39;7.73;;;6.83;;
82028;SDS011;71590;52.216;13.448;2023-07-29T20:41:45;9.20;;;8.27;;
82028;SDS011;71590;52.216;13.448;2023-07-29T20:46:46;10.13;;;9.03;;
82028;SDS011;71590;52.216;13.448;2023-07-29T20:51:50;9.23;;;8.33;;
82028;SDS011;71590;52.216;13.448;2023-07-29T20:56:51;9.40;;;8.40;;
82028;SDS011;71590;52.216;13.448;2023-07-29T21:01:52;9.13;;;8.23;;
82028;SDS011;71590;52.216;13.448;2023-07-29T21:06:53;9.80;;;8.20;;
82028;SDS011;71590;52.216;13.448;2023-07-29T21:11:54;8.30;;;7.60;;
82028;SDS011;71590;52.216;13.448;2023-07-29T21:16:55;7.50;;;6.80;;
82028;SDS011;71590;52.216;13.448;2023-07-29T21:21:56;8.07;;;6.00;;
82028;SDS011;71590;52.216;13.448;2023-07-29T21:26:57;7.37;;;6.30;;
82028;SDS011;71590;52.216;13.448;2023-07-29T21:31:58;6.97;;;6.17;;
82028;SDS011;71590;52.216;13.448;2023-07-29T21:36:59;8.30;;;6.77;;
82028;SDS011;71590;52.216;13.448;2023-07-29T21:42:00;8.53;;;7.70;;
82028;SDS011;71590;52.216;13.448;2023-07-29T21:47:01;8.10;;;7.27;;
82028;SDS011;71590;52.216;13.448;2023-07-29T21:52:02;8.60;;;7.80;;
82028;SDS011;71590;52.216;13.448;2023-07-29T21:57:03;8.17;;;7.47;;
82028;SDS011;71590;52.216;13.448;2023-07-29T22:02:04;10.30;;;6.93;;
82028;SDS011;71590;52.216;13.448;2023-07-29T22:07:05;9.53;;;7.03;;
82028;SDS011;71590;52.216;13.448;2023-07-29T22:12:07;9.70;;;8.80;;
82028;SDS011;71590;52.216;13.448;2023-07-29T22:17:08;9.50;;;8.57;;
82028;SDS011;71590;52.216;13.448;2023-07-29T22:22:09;12.10;;;10.97;;
82028;SDS011;71590;52.216;13.448;2023-07-29T22:27:11;10.83;;;9.83;;
82028;SDS011;71590;52.216;13.448;2023-07-29T22:32:12;16.83;;;15.30;;
82028;SDS011;71590;52.216;13.448;2023-07-29T22:37:13;25.47;;;23.13;;
82028;SDS011;71590;52.216;13.448;2023-07-29T22:42:14;20.90;;;18.70;;
82028;SDS011;71590;52.216;13.448;2023-07-29T22:47:15;19.90;;;18.07;;
82028;SDS011;71590;52.216;13.448;2023-07-29T22:52:16;16.70;;;15.10;;
82028;SDS011;71590;52.216;13.448;2023-07-29T22:57:17;12.60;;;11.33;;
82028;SDS011;71590;52.216;13.448;2023-07-29T23:02:18;17.97;;;16.00;;
82028;SDS011;71590;52.216;13.448;2023-07-29T23:07:21;14.77;;;13.30;;
82028;SDS011;71590;52.216;13.448;2023-07-29T23:12:22;16.90;;;14.57;;
82028;SDS011;71590;52.216;13.448;2023-07-29T23:17:23;14.50;;;13.20;;
82028;SDS011;71590;52.216;13.448;2023-07-29T23:22:24;14.93;;;11.60;;
82028;SDS011;71590;52.216;13.448;2023-07-29T23:27:25;12.30;;;10.83;;
82028;SDS011;71590;52.216;13.448;2023-07-29T23:32:26;16.00;;;13.03;;
82028;SDS011;71590;52.216;13.448;2023-07-29T23:37:27;13.23;;;11.97;;
82028;SDS011;71590;52.216;13.448;2023-07-29T23:42:28;11.37;;;10.20;;
82028;SDS011;71590;52.216;13.448;2023-07-29T23:47:28;11.57;;;10.47;;
82028;SDS011;71590;52.216;13.448;2023-07-29T23:52:29;13.27;;;10.60;;
82028;SDS011;71590;52.216;13.448;2023-07-29T23:57:30;13.30;;;11.40;;
